sensor_id;sensor_type;location;lat;lon;timestamp;pressure;altitude;pressure_sealevel;temperature;humidity
31082;BME280;17737;52.586;13.284;2022-07-19T00:00:05;101491.72;;;19.48;64.70
31082;BME280;17737;52.586;13.284;2022-07-19T00:02:35;101487.44;;;19.47;64.66
31082;BME280;17737;52.586;13.284;2022-07-19T00:05:04;101489.75;;;19.41;64.65
31082;BME280;17737;52.586;13.284;2022-07-19T00:07:33;101487.78;;;19.38;64.85
31082;BME280;17737;52.586;13.284;2022-07-19T00:10:02;101490.13;;;19.40;64.71
31082;BME280;17737;52.586;13.284;2022-07-19T00:12:31;101492.03;;;19.36;64.96
31082;BME280;17737;52.586;13.284;2022-07-19T00:14:59;101492.44;;;19.34;65.31
31082;BME280;17737;52.586;13.284;2022-07-19T00:17:28;101487.34;;;19.33;65.34
31082;BME280;17737;52.586;13.284;2022-07-19T00:19:56;101485.41;;;19.30;65.67
31082;BME280;17737;52.586;13.284;2022-07-19T00:22:24;101492.03;;;19.29;65.88
31082;BME280;17737;52.586;13.284;2022-07-19T00:24:51;101487.31;;;19.29;65.91
31082;BME280;17737;52.586;13.284;2022-07-19T00:27:19;101492.78;;;19.29;65.88
31082;BME280;17737;52.586;13.284;2022-07-19T00:29:47;101493.91;;;19.17;66.18
31082;BME280;17737;52.586;13.284;2022-07-19T00:32:14;101491.59;;;19.19;66.13
31082;BME280;17737;52.586;13.284;2022-07-19T00:34:44;101498.59;;;19.13;66.34
31082;BME280;17737;52.586;13.284;2022-07-19T00:37:11;101496.22;;;19.12;66.36
31082;BME280;17737;52.586;13.284;2022-07-19T00:39:39;101504.03;;;19.10;66.97
31082;BME280;17737;52.586;13.284;2022-07-19T00:42:07;101499.75;;;19.09;66.66
31082;BME280;17737;52.586;13.284;2022-07-19T00:44:35;101501.28;;;19.06;66.53
31082;BME280;17737;52.586;13.284;2022-07-19T00:47:02;101502.41;;;19.01;66.73
31082;BME280;17737;52.586;13.284;2022-07-19T00:49:32;101503.59;;;19.00;66.98
31082;BME280;17737;52.586;13.284;2022-07-19T00:52:02;101510.25;;;19.03;67.35
31082;BME280;17737;52.586;13.284;2022-07-19T00:54:32;101500.84;;;18.97;67.34
31082;BME280;17737;52.586;13.284;2022-07-19T00:57:02;101504.72;;;18.92;67.16
31082;BME280;17737;52.586;13.284;2022-07-19T00:59:30;101503.91;;;18.85;67.35
31082;BME280;17737;52.586;13.284;2022-07-19T01:01:58;101506.97;;;18.80;67.33
31082;BME280;17737;52.586;13.284;2022-07-19T01:04:27;101509.31;;;18.77;66.54
31082;BME280;17737;52.586;13.284;2022-07-19T01:06:55;101513.59;;;18.75;66.08
31082;BME280;17737;52.586;13.284;2022-07-19T01:09:24;101515.13;;;18.76;65.19
31082;BME280;17737;52.586;13.284;2022-07-19T01:11:52;101510.84;;;18.75;65.28
31082;BME280;17737;52.586;13.284;2022-07-19T01:14:20;101511.63;;;18.75;63.86
31082;BME280;17737;52.586;13.284;2022-07-19T01:16:47;101511.59;;;18.72;64.21
31082;BME280;17737;52.586;13.284;2022-07-19T01:19:15;101509.22;;;18.70;64.34
31082;BME280;17737;52.586;13.284;2022-07-19T01:21:44;101511.13;;;18.66;64.45
31082;BME280;17737;52.586;13.284;2022-07-19T01:24:12;101522.81;;;18.63;64.68
31082;BME280;17737;52.586;13.284;2022-07-19T01:26:40;101506.84;;;18.65;64.18
31082;BME280;17737;52.586;13.284;2022-07-19T01:29:08;101506.09;;;18.68;63.62
31082;BME280;17737;52.586;13.284;2022-07-19T01:31:42;101504.56;;;18.71;63.64
31082;BME280;17737;52.586;13.284;2022-07-19T01:34:10;101506.50;;;18.70;64.04
31082;BME280;17737;52.586;13.284;2022-07-19T01:36:37;101505.66;;;18.66;64.80
31082;BME280;17737;52.586;13.284;2022-07-19T01:39:06;101500.56;;;18.61;64.29
31082;BME280;17737;52.586;13.284;2022-07-19T01:41:34;101499.38;;;18.59;64.12
31082;BME280;17737;52.586;13.284;2022-07-19T01:44:02;101505.59;;;18.56;64.09
31082;BME280;17737;52.586;13.284;2022-07-19T01:46:30;101498.91;;;18.49;64.10
31082;BME280;17737;52.586;13.284;2022-07-19T01:48:58;101498.94;;;18.53;63.92
31082;BME280;17737;52.586;13.284;2022-07-19T01:51:26;101496.63;;;18.59;63.42
31082;BME280;17737;52.586;13.284;2022-07-19T01:53:53;101491.56;;;18.57;64.25
31082;BME280;17737;52.586;13.284;2022-07-19T01:56:23;101492.31;;;18.54;63.29
31082;BME280;17737;52.586;13.284;2022-07-19T01:58:50;101495.75;;;18.44;64.30
31082;BME280;17737;52.586;13.284;2022-07-19T02:01:18;101497.66;;;18.36;64.90
31082;BME280;17737;52.586;13.284;2022-07-19T02:03:46;101491.75;;;18.34;64.98
31082;BME280;17737;52.586;13.284;2022-07-19T02:06:14;101489.41;;;18.33;65.69
31082;BME280;17737;52.586;13.284;2022-07-19T02:08:41;101490.94;;;18.30;66.46
31082;BME280;17737;52.586;13.284;2022-07-19T02:11:09;101493.22;;;18.24;67.11
31082;BME280;17737;52.586;13.284;2022-07-19T02:13:56;101497.09;;;18.20;67.98
31082;BME280;17737;52.586;13.284;2022-07-19T02:16:25;101495.13;;;18.17;68.50
31082;BME280;17737;52.586;13.284;2022-07-19T02:18:53;101491.16;;;18.11;69.18
31082;BME280;17737;52.586;13.284;2022-07-19T02:21:21;101496.25;;;18.12;69.70
31082;BME280;17737;52.586;13.284;2022-07-19T02:23:48;101489.56;;;18.06;70.16
31082;BME280;17737;52.586;13.284;2022-07-19T02:26:16;101490.72;;;18.05;70.22
31082;BME280;17737;52.586;13.284;2022-07-19T02:28:44;101489.09;;;18.00;70.14
31082;BME280;17737;52.586;13.284;2022-07-19T02:31:13;101495.75;;;18.03;69.90
31082;BME280;17737;52.586;13.284;2022-07-19T02:33:41;101496.16;;;18.01;69.80
31082;BME280;17737;52.586;13.284;2022-07-19T02:36:10;101496.97;;;18.05;69.73
31082;BME280;17737;52.586;13.284;2022-07-19T02:38:38;101487.25;;;18.08;69.21
31082;BME280;17737;52.586;13.284;2022-07-19T02:41:06;101494.56;;;18.00;69.33
31082;BME280;17737;52.586;13.284;2022-07-19T02:43:34;101490.66;;;17.98;68.85
31082;BME280;17737;52.586;13.284;2022-07-19T02:46:02;101484.03;;;17.99;69.29
31082;BME280;17737;52.586;13.284;2022-07-19T02:48:31;101484.34;;;17.94;68.86
31082;BME280;17737;52.586;13.284;2022-07-19T02:50:59;101481.56;;;17.87;68.05
31082;BME280;17737;52.586;13.284;2022-07-19T02:53:27;101482.72;;;17.86;68.44
31082;BME280;17737;52.586;13.284;2022-07-19T02:55:54;101491.69;;;17.86;68.21
31082;BME280;17737;52.586;13.284;2022-07-19T02:58:22;101488.22;;;17.89;68.46
31082;BME280;17737;52.586;13.284;2022-07-19T03:00:50;101492.81;;;17.81;69.47
31082;BME280;17737;52.586;13.284;2022-07-19T03:03:18;101493.13;;;17.76;69.95
31082;BME280;17737;52.586;13.284;2022-07-19T03:06:04;101492.72;;;17.74;71.03
31082;BME280;17737;52.586;13.284;2022-07-19T03:08:32;101492.28;;;17.72;71.48
31082;BME280;17737;52.586;13.284;2022-07-19T03:11:00;101491.50;;;17.72;71.70
31082;BME280;17737;52.586;13.284;2022-07-19T03:13:28;101487.97;;;17.68;71.75
31082;BME280;17737;52.586;13.284;2022-07-19T03:15:56;101490.72;;;17.71;71.66
31082;BME280;17737;52.586;13.284;2022-07-19T03:18:23;101488.03;;;17.75;71.76
31082;BME280;17737;52.586;13.284;2022-07-19T03:20:51;101486.06;;;17.72;71.86
31082;BME280;17737;52.586;13.284;2022-07-19T03:23:22;101488.78;;;17.72;72.04
31082;BME280;17737;52.586;13.284;2022-07-19T03:25:50;101478.66;;;17.72;71.95
31082;BME280;17737;52.586;13.284;2022-07-19T03:28:17;101486.84;;;17.72;72.08
31082;BME280;17737;52.586;13.284;2022-07-19T03:30:45;101483.31;;;17.72;71.80
31082;BME280;17737;52.586;13.284;2022-07-19T03:33:13;101488.09;;;17.78;71.28
31082;BME280;17737;52.586;13.284;2022-07-19T03:35:43;101483.44;;;17.79;71.37
31082;BME280;17737;52.586;13.284;2022-07-19T03:38:11;101481.47;;;17.79;71.07
31082;BME280;17737;52.586;13.284;2022-07-19T03:40:43;101483.19;;;17.91;70.71
31082;BME280;17737;52.586;13.284;2022-07-19T03:43:11;101482.13;;;18.03;69.45
31082;BME280;17737;52.586;13.284;2022-07-19T03:45:39;101485.03;;;18.24;67.68
31082;BME280;17737;52.586;13.284;2022-07-19T03:48:07;101478.63;;;18.50;67.05
31082;BME280;17737;52.586;13.284;2022-07-19T03:50:34;101478.97;;;18.97;65.13
31082;BME280;17737;52.586;13.284;2022-07-19T03:53:02;101484.50;;;19.08;64.77
31082;BME280;17737;52.586;13.284;2022-07-19T03:55:30;101487.28;;;19.22;64.39
31082;BME280;17737;52.586;13.284;2022-07-19T03:57:59;101488.25;;;19.58;62.95
31082;BME280;17737;52.586;13.284;2022-07-19T04:00:27;101487.91;;;19.78;62.01
31082;BME280;17737;52.586;13.284;2022-07-19T04:02:55;101485.59;;;19.83;61.76
31082;BME280;17737;52.586;13.284;2022-07-19T04:05:23;101493.03;;;19.90;61.36
31082;BME280;17737;52.586;13.284;2022-07-19T04:07:50;101495.81;;;20.11;59.99
31082;BME280;17737;52.586;13.284;2022-07-19T04:10:18;101488.78;;;20.35;59.49
31082;BME280;17737;52.586;13.284;2022-07-19T04:12:46;101488.38;;;20.87;58.23
31082;BME280;17737;52.586;13.284;2022-07-19T04:15:15;101489.91;;;20.95;57.52
31082;BME280;17737;52.586;13.284;2022-07-19T04:17:43;101483.91;;;21.47;55.59
31082;BME280;17737;52.586;13.284;2022-07-19T04:20:11;101492.66;;;21.09;56.29
31082;BME280;17737;52.586;13.284;2022-07-19T04:22:39;101489.53;;;20.97;57.11
31082;BME280;17737;52.586;13.284;2022-07-19T04:25:07;101492.63;;;21.06;56.35
31082;BME280;17737;52.586;13.284;2022-07-19T04:27:36;101489.78;;;21.49;55.26
31082;BME280;17737;52.586;13.284;2022-07-19T04:30:04;101499.97;;;21.48;55.03
31082;BME280;17737;52.586;13.284;2022-07-19T04:32:34;101506.78;;;21.92;53.92
31082;BME280;17737;52.586;13.284;2022-07-19T04:35:01;101503.44;;;22.29;52.56
31082;BME280;17737;52.586;13.284;2022-07-19T04:37:30;101492.09;;;22.27;52.88
31082;BME280;17737;52.586;13.284;2022-07-19T04:39:57;101500.19;;;22.45;52.36
31082;BME280;17737;52.586;13.284;2022-07-19T04:42:25;101495.44;;;22.49;52.20
31082;BME280;17737;52.586;13.284;2022-07-19T04:44:53;101493.88;;;22.93;51.24
31082;BME280;17737;52.586;13.284;2022-07-19T04:47:20;101499.63;;;23.37;50.14
31082;BME280;17737;52.586;13.284;2022-07-19T04:49:50;101497.72;;;23.64;49.54
31082;BME280;17737;52.586;13.284;2022-07-19T04:52:17;101502.72;;;23.42;48.98
31082;BME280;17737;52.586;13.284;2022-07-19T04:54:45;101499.16;;;23.45;49.13
31082;BME280;17737;52.586;13.284;2022-07-19T04:57:13;101497.72;;;23.64;47.37
31082;BME280;17737;52.586;13.284;2022-07-19T04:59:41;101501.06;;;23.18;48.21
31082;BME280;17737;52.586;13.284;2022-07-19T05:02:09;101499.50;;;24.32;44.90
31082;BME280;17737;52.586;13.284;2022-07-19T05:04:37;101499.78;;;24.38;44.11
31082;BME280;17737;52.586;13.284;2022-07-19T05:07:06;101503.22;;;24.69;42.06
31082;BME280;17737;52.586;13.284;2022-07-19T05:09:34;101498.13;;;25.11;40.81
31082;BME280;17737;52.586;13.284;2022-07-19T05:12:02;101509.41;;;24.97;40.29
31082;BME280;17737;52.586;13.284;2022-07-19T05:14:31;101503.53;;;24.01;42.12
31082;BME280;17737;52.586;13.284;2022-07-19T05:16:59;101502.78;;;24.24;41.10
31082;BME280;17737;52.586;13.284;2022-07-19T05:19:27;101499.28;;;24.19;41.58
31082;BME280;17737;52.586;13.284;2022-07-19T05:21:55;101501.09;;;24.30;41.23
31082;BME280;17737;52.586;13.284;2022-07-19T05:24:24;101502.34;;;24.96;40.23
31082;BME280;17737;52.586;13.284;2022-07-19T05:26:52;101511.78;;;24.75;39.45
31082;BME280;17737;52.586;13.284;2022-07-19T05:29:19;101515.88;;;25.50;38.58
31082;BME280;17737;52.586;13.284;2022-07-19T05:31:47;101513.34;;;25.19;39.00
31082;BME280;17737;52.586;13.284;2022-07-19T05:34:15;101511.63;;;25.45;39.35
31082;BME280;17737;52.586;13.284;2022-07-19T05:36:43;101521.94;;;25.61;38.50
31082;BME280;17737;52.586;13.284;2022-07-19T05:39:11;101515.47;;;25.31;38.94
31082;BME280;17737;52.586;13.284;2022-07-19T05:41:40;101511.38;;;25.20;39.19
31082;BME280;17737;52.586;13.284;2022-07-19T05:44:08;101518.44;;;26.29;36.92
31082;BME280;17737;52.586;13.284;2022-07-19T05:46:36;101515.59;;;26.33;37.29
31082;BME280;17737;52.586;13.284;2022-07-19T05:49:09;101521.34;;;25.70;38.30
31082;BME280;17737;52.586;13.284;2022-07-19T05:51:37;101517.59;;;25.44;38.62
31082;BME280;17737;52.586;13.284;2022-07-19T05:54:05;101522.25;;;25.27;38.85
31082;BME280;17737;52.586;13.284;2022-07-19T05:56:33;101518.56;;;25.13;39.70
31082;BME280;17737;52.586;13.284;2022-07-19T05:59:03;101514.41;;;24.82;39.44
31082;BME280;17737;52.586;13.284;2022-07-19T06:01:30;101517.50;;;24.64;40.81
31082;BME280;17737;52.586;13.284;2022-07-19T06:03:59;101520.44;;;24.53;40.95
31082;BME280;17737;52.586;13.284;2022-07-19T06:06:28;101519.16;;;24.58;40.65
31082;BME280;17737;52.586;13.284;2022-07-19T06:08:58;101519.66;;;24.53;40.41
31082;BME280;17737;52.586;13.284;2022-07-19T06:11:27;101517.50;;;24.40;40.78
31082;BME280;17737;52.586;13.284;2022-07-19T06:13:55;101515.19;;;24.35;41.19
31082;BME280;17737;52.586;13.284;2022-07-19T06:16:24;101514.34;;;24.15;42.42
31082;BME280;17737;52.586;13.284;2022-07-19T06:18:53;101525.41;;;24.35;43.38
31082;BME280;17737;52.586;13.284;2022-07-19T06:21:21;101517.75;;;24.23;43.91
31082;BME280;17737;52.586;13.284;2022-07-19T06:23:49;101513.09;;;23.92;44.00
31082;BME280;17737;52.586;13.284;2022-07-19T06:26:17;101522.31;;;23.79;42.86
31082;BME280;17737;52.586;13.284;2022-07-19T06:28:44;101518.06;;;23.74;42.41
31082;BME280;17737;52.586;13.284;2022-07-19T06:31:13;101520.16;;;23.93;41.32
31082;BME280;17737;52.586;13.284;2022-07-19T06:33:45;101522.50;;;23.95;41.22
31082;BME280;17737;52.586;13.284;2022-07-19T06:36:14;101526.03;;;23.95;41.45
31082;BME280;17737;52.586;13.284;2022-07-19T06:38:43;101519.91;;;24.11;40.53
31082;BME280;17737;52.586;13.284;2022-07-19T06:41:11;101526.75;;;24.27;40.74
31082;BME280;17737;52.586;13.284;2022-07-19T06:43:39;101523.41;;;24.39;41.03
31082;BME280;17737;52.586;13.284;2022-07-19T06:46:10;101522.19;;;24.67;40.45
31082;BME280;17737;52.586;13.284;2022-07-19T06:48:38;101525.22;;;24.73;40.62
31082;BME280;17737;52.586;13.284;2022-07-19T06:51:07;101520.06;;;24.51;40.79
31082;BME280;17737;52.586;13.284;2022-07-19T06:53:35;101519.44;;;24.87;40.97
31082;BME280;17737;52.586;13.284;2022-07-19T06:56:03;101517.63;;;25.00;40.77
31082;BME280;17737;52.586;13.284;2022-07-19T06:58:32;101514.31;;;25.09;40.20
31082;BME280;17737;52.586;13.284;2022-07-19T07:01:06;101518.59;;;25.33;39.24
31082;BME280;17737;52.586;13.284;2022-07-19T07:03:35;101518.22;;;25.31;38.60
31082;BME280;17737;52.586;13.284;2022-07-19T07:06:03;101512.28;;;25.13;39.29
31082;BME280;17737;52.586;13.284;2022-07-19T07:08:32;101515.47;;;25.31;37.88
31082;BME280;17737;52.586;13.284;2022-07-19T07:11:00;101518.38;;;25.24;38.84
31082;BME280;17737;52.586;13.284;2022-07-19T07:13:28;101512.84;;;25.44;38.49
31082;BME280;17737;52.586;13.284;2022-07-19T07:15:56;101512.84;;;25.44;38.26
31082;BME280;17737;52.586;13.284;2022-07-19T07:18:24;101518.13;;;25.55;38.94
31082;BME280;17737;52.586;13.284;2022-07-19T07:20:51;101514.88;;;25.96;37.88
31082;BME280;17737;52.586;13.284;2022-07-19T07:23:19;101525.25;;;25.92;37.82
31082;BME280;17737;52.586;13.284;2022-07-19T07:25:49;101525.25;;;25.92;37.59
31082;BME280;17737;52.586;13.284;2022-07-19T07:28:20;101524.91;;;26.06;37.67
31082;BME280;17737;52.586;13.284;2022-07-19T07:30:51;101524.81;;;26.10;37.48
31082;BME280;17737;52.586;13.284;2022-07-19T07:33:19;101521.97;;;26.30;37.38
31082;BME280;17737;52.586;13.284;2022-07-19T07:35:47;101520.09;;;26.27;36.64
31082;BME280;17737;52.586;13.284;2022-07-19T07:38:15;101518.03;;;26.47;36.51
31082;BME280;17737;52.586;13.284;2022-07-19T07:40:43;101516.34;;;26.66;36.64
31082;BME280;17737;52.586;13.284;2022-07-19T07:43:12;101515.78;;;26.88;36.14
31082;BME280;17737;52.586;13.284;2022-07-19T07:45:40;101521.00;;;26.86;35.00
31082;BME280;17737;52.586;13.284;2022-07-19T07:48:08;101518.38;;;26.95;35.43
31082;BME280;17737;52.586;13.284;2022-07-19T07:50:36;101518.84;;;26.77;34.95
31082;BME280;17737;52.586;13.284;2022-07-19T07:53:04;101519.47;;;26.97;34.56
31082;BME280;17737;52.586;13.284;2022-07-19T07:55:32;101516.06;;;26.77;34.94
31082;BME280;17737;52.586;13.284;2022-07-19T07:58:05;101518.69;;;26.68;35.15
31082;BME280;17737;52.586;13.284;2022-07-19T08:00:35;101525.78;;;26.69;35.55
31082;BME280;17737;52.586;13.284;2022-07-19T08:03:04;101518.59;;;26.71;35.47
31082;BME280;17737;52.586;13.284;2022-07-19T08:05:32;101524.19;;;26.84;35.35
31082;BME280;17737;52.586;13.284;2022-07-19T08:08:01;101520.44;;;26.91;35.14
31082;BME280;17737;52.586;13.284;2022-07-19T08:10:30;101513.06;;;27.00;35.00
31082;BME280;17737;52.586;13.284;2022-07-19T08:12:59;101507.88;;;27.32;34.35
31082;BME280;17737;52.586;13.284;2022-07-19T08:15:34;101516.75;;;27.39;34.27
31082;BME280;17737;52.586;13.284;2022-07-19T08:18:03;101510.13;;;27.62;33.88
31082;BME280;17737;52.586;13.284;2022-07-19T08:20:32;101518.09;;;27.60;34.11
31082;BME280;17737;52.586;13.284;2022-07-19T08:22:59;101519.09;;;27.54;33.83
31082;BME280;17737;52.586;13.284;2022-07-19T08:25:27;101517.63;;;27.78;34.12
31082;BME280;17737;52.586;13.284;2022-07-19T08:27:55;101515.69;;;27.88;33.33
31082;BME280;17737;52.586;13.284;2022-07-19T08:30:23;101510.63;;;27.86;33.15
31082;BME280;17737;52.586;13.284;2022-07-19T08:33:12;101521.72;;;27.99;33.20
31082;BME280;17737;52.586;13.284;2022-07-19T08:35:40;101519.16;;;27.92;33.33
31082;BME280;17737;52.586;13.284;2022-07-19T08:38:08;101514.59;;;27.98;32.75
31082;BME280;17737;52.586;13.284;2022-07-19T08:40:36;101516.38;;;28.05;32.99
31082;BME280;17737;52.586;13.284;2022-07-19T08:43:08;101509.44;;;28.35;32.20
31082;BME280;17737;52.586;13.284;2022-07-19T08:45:37;101518.31;;;28.42;32.33
31082;BME280;17737;52.586;13.284;2022-07-19T08:48:07;101510.91;;;28.74;32.10
31082;BME280;17737;52.586;13.284;2022-07-19T08:50:36;101512.25;;;28.70;32.23
31082;BME280;17737;52.586;13.284;2022-07-19T08:53:06;101517.69;;;28.73;31.12
31082;BME280;17737;52.586;13.284;2022-07-19T08:55:34;101514.75;;;28.89;31.53
31082;BME280;17737;52.586;13.284;2022-07-19T08:58:01;101508.19;;;29.18;31.85
31082;BME280;17737;52.586;13.284;2022-07-19T09:00:29;101512.75;;;29.12;31.67
31082;BME280;17737;52.586;13.284;2022-07-19T09:02:59;101508.78;;;28.78;31.48
31082;BME280;17737;52.586;13.284;2022-07-19T09:05:29;101508.34;;;28.80;31.74
31082;BME280;17737;52.586;13.284;2022-07-19T09:08:04;101500.00;;;28.80;31.66
31082;BME280;17737;52.586;13.284;2022-07-19T09:10:35;101500.31;;;29.17;31.18
31082;BME280;17737;52.586;13.284;2022-07-19T09:13:06;101498.81;;;29.25;30.24
31082;BME280;17737;52.586;13.284;2022-07-19T09:15:39;101499.44;;;29.29;30.53
31082;BME280;17737;52.586;13.284;2022-07-19T09:18:11;101503.84;;;29.17;30.60
31082;BME280;17737;52.586;13.284;2022-07-19T09:20:41;101502.28;;;29.16;30.46
31082;BME280;17737;52.586;13.284;2022-07-19T09:23:11;101507.19;;;29.12;30.24
31082;BME280;17737;52.586;13.284;2022-07-19T09:25:40;101498.81;;;29.03;30.28
31082;BME280;17737;52.586;13.284;2022-07-19T09:28:09;101508.03;;;29.22;29.52
31082;BME280;17737;52.586;13.284;2022-07-19T09:30:38;101504.78;;;29.23;29.33
31082;BME280;17737;52.586;13.284;2022-07-19T09:33:13;101499.63;;;29.34;28.96
31082;BME280;17737;52.586;13.284;2022-07-19T09:35:44;101494.44;;;29.77;28.54
31082;BME280;17737;52.586;13.284;2022-07-19T09:38:15;101495.25;;;29.87;29.08
31082;BME280;17737;52.586;13.284;2022-07-19T09:40:47;101494.06;;;30.06;27.49
31082;BME280;17737;52.586;13.284;2022-07-19T09:43:15;101482.88;;;30.28;27.18
31082;BME280;17737;52.586;13.284;2022-07-19T09:46:05;101488.91;;;30.36;26.82
31082;BME280;17737;52.586;13.284;2022-07-19T09:49:04;101492.78;;;30.38;26.78
31082;BME280;17737;52.586;13.284;2022-07-19T09:51:36;101481.94;;;30.40;26.51
31082;BME280;17737;52.586;13.284;2022-07-19T09:54:07;101473.59;;;30.68;26.47
31082;BME280;17737;52.586;13.284;2022-07-19T09:56:37;101475.16;;;30.78;25.91
31082;BME280;17737;52.586;13.284;2022-07-19T09:59:07;101464.03;;;30.87;25.25
31082;BME280;17737;52.586;13.284;2022-07-19T10:01:35;101467.09;;;31.08;24.52
31082;BME280;17737;52.586;13.284;2022-07-19T10:04:05;101462.56;;;31.19;23.76
31082;BME280;17737;52.586;13.284;2022-07-19T10:06:35;101469.22;;;31.22;24.44
31082;BME280;17737;52.586;13.284;2022-07-19T10:09:03;101466.09;;;31.29;25.33
31082;BME280;17737;52.586;13.284;2022-07-19T10:11:34;101458.41;;;31.06;24.17
31082;BME280;17737;52.586;13.284;2022-07-19T10:14:02;101464.63;;;30.91;24.64
31082;BME280;17737;52.586;13.284;2022-07-19T10:16:33;101460.09;;;31.12;24.30
31082;BME280;17737;52.586;13.284;2022-07-19T10:19:12;101458.28;;;30.91;23.63
31082;BME280;17737;52.586;13.284;2022-07-19T10:21:45;101455.03;;;31.01;23.28
31082;BME280;17737;52.586;13.284;2022-07-19T10:24:14;101458.34;;;31.24;23.72
31082;BME280;17737;52.586;13.284;2022-07-19T10:27:14;101449.06;;;31.36;23.28
31082;BME280;17737;52.586;13.284;2022-07-19T10:29:43;101445.72;;;31.56;23.24
31082;BME280;17737;52.586;13.284;2022-07-19T10:32:12;101449.38;;;31.20;23.45
31082;BME280;17737;52.586;13.284;2022-07-19T10:34:41;101446.06;;;31.49;23.06
31082;BME280;17737;52.586;13.284;2022-07-19T10:37:12;101448.75;;;31.34;22.87
31082;BME280;17737;52.586;13.284;2022-07-19T10:39:40;101451.06;;;31.26;22.82
31082;BME280;17737;52.586;13.284;2022-07-19T10:42:11;101446.50;;;31.57;23.41
31082;BME280;17737;52.586;13.284;2022-07-19T10:47:58;101442.63;;;31.54;22.92
31082;BME280;17737;52.586;13.284;2022-07-19T10:50:45;101438.63;;;31.79;23.03
31082;BME280;17737;52.586;13.284;2022-07-19T10:56:24;101432.34;;;31.93;22.03
31082;BME280;17737;52.586;13.284;2022-07-19T10:58:58;101425.09;;;32.11;22.33
31082;BME280;17737;52.586;13.284;2022-07-19T11:01:28;101429.66;;;32.47;21.72
31082;BME280;17737;52.586;13.284;2022-07-19T11:06:50;101415.75;;;32.38;21.81
31082;BME280;17737;52.586;13.284;2022-07-19T11:09:19;101413.31;;;32.55;20.60
31082;BME280;17737;52.586;13.284;2022-07-19T11:11:51;101415.63;;;32.71;20.78
31082;BME280;17737;52.586;13.284;2022-07-19T11:14:20;101419.13;;;32.96;20.51
31082;BME280;17737;52.586;13.284;2022-07-19T11:16:48;101415.22;;;32.93;20.75
31082;BME280;17737;52.586;13.284;2022-07-19T11:19:26;101414.75;;;32.80;21.93
31082;BME280;17737;52.586;13.284;2022-07-19T11:21:54;101406.38;;;32.50;20.74
31082;BME280;17737;52.586;13.284;2022-07-19T11:24:28;101409.34;;;32.47;20.11
31082;BME280;17737;52.586;13.284;2022-07-19T11:26:56;101399.56;;;32.27;20.86
31082;BME280;17737;52.586;13.284;2022-07-19T11:32:23;101405.00;;;32.46;19.31
31082;BME280;17737;52.586;13.284;2022-07-19T11:34:54;101402.03;;;32.10;20.68
31082;BME280;17737;52.586;13.284;2022-07-19T11:37:23;101412.19;;;32.37;20.91
31082;BME280;17737;52.586;13.284;2022-07-19T11:39:53;101401.78;;;32.38;18.47
31082;BME280;17737;52.586;13.284;2022-07-19T11:42:28;101392.13;;;32.63;19.75
31082;BME280;17737;52.586;13.284;2022-07-19T11:45:19;101391.16;;;33.10;18.30
31082;BME280;17737;52.586;13.284;2022-07-19T11:47:49;101387.13;;;32.97;19.20
31082;BME280;17737;52.586;13.284;2022-07-19T11:50:18;101390.94;;;33.29;20.21
31082;BME280;17737;52.586;13.284;2022-07-19T11:52:50;101389.75;;;33.50;20.42
31082;BME280;17737;52.586;13.284;2022-07-19T11:55:19;101385.97;;;33.74;20.45
31082;BME280;17737;52.586;13.284;2022-07-19T11:57:49;101383.97;;;33.39;20.13
31082;BME280;17737;52.586;13.284;2022-07-19T12:00:19;101384.53;;;32.78;19.46
31082;BME280;17737;52.586;13.284;2022-07-19T12:02:55;101393.38;;;32.91;19.92
31082;BME280;17737;52.586;13.284;2022-07-19T12:05:30;101390.03;;;33.02;20.00
31082;BME280;17737;52.586;13.284;2022-07-19T12:08:00;101386.34;;;33.11;20.00
31082;BME280;17737;52.586;13.284;2022-07-19T12:10:35;101389.63;;;33.09;20.10
31082;BME280;17737;52.586;13.284;2022-07-19T12:13:09;101390.88;;;32.79;20.70
31082;BME280;17737;52.586;13.284;2022-07-19T12:15:52;101386.94;;;32.85;20.98
31082;BME280;17737;52.586;13.284;2022-07-19T12:18:22;101384.03;;;32.80;21.29
31082;BME280;17737;52.586;13.284;2022-07-19T12:21:15;101383.81;;;33.28;19.97
31082;BME280;17737;52.586;13.284;2022-07-19T12:26:39;101382.22;;;33.06;19.59
31082;BME280;17737;52.586;13.284;2022-07-19T12:29:20;101377.56;;;33.18;19.64
31082;BME280;17737;52.586;13.284;2022-07-19T12:31:52;101383.81;;;33.28;19.75
31082;BME280;17737;52.586;13.284;2022-07-19T12:34:22;101387.28;;;33.23;19.53
31082;BME280;17737;52.586;13.284;2022-07-19T12:36:51;101381.84;;;33.49;19.32
31082;BME280;17737;52.586;13.284;2022-07-19T12:39:26;101382.91;;;33.72;19.68
31082;BME280;17737;52.586;13.284;2022-07-19T12:41:59;101381.03;;;34.04;19.40
31082;BME280;17737;52.586;13.284;2022-07-19T12:44:28;101381.81;;;34.04;18.67
31082;BME280;17737;52.586;13.284;2022-07-19T12:46:58;101374.91;;;33.44;18.91
31082;BME280;17737;52.586;13.284;2022-07-19T12:49:47;101375.72;;;33.30;19.46
31082;BME280;17737;52.586;13.284;2022-07-19T12:52:28;101371.84;;;33.63;19.88
31082;BME280;17737;52.586;13.284;2022-07-19T12:54:57;101373.03;;;33.56;19.19
31082;BME280;17737;52.586;13.284;2022-07-19T12:57:24;101374.00;;;33.53;19.23
31082;BME280;17737;52.586;13.284;2022-07-19T12:59:54;101370.78;;;33.60;19.35
31082;BME280;17737;52.586;13.284;2022-07-19T13:02:23;101366.97;;;33.57;18.78
31082;BME280;17737;52.586;13.284;2022-07-19T13:04:51;101367.19;;;33.54;18.44
31082;BME280;17737;52.586;13.284;2022-07-19T13:07:19;101361.81;;;33.71;19.76